createdAt,value
2018-08-12T00:01:22.991Z,5.10
2018-08-12T00:03:52.027Z,5.93
2018-08-12T00:06:21.014Z,6.07
2018-08-12T00:08:49.975Z,6.17
2018-08-12T00:11:18.931Z,5.83
2018-08-12T00:13:48.122Z,4.97
2018-08-12T00:16:17.230Z,7.93
2018-08-12T00:18:46.324Z,5.27
2018-08-12T00:21:15.340Z,5.30
2018-08-12T00:23:44.447Z,5.10
2018-08-12T00:26:13.539Z,5.20
2018-08-12T00:28:42.535Z,5.40
2018-08-12T00:31:11.527Z,4.40
2018-08-12T00:33:40.439Z,6.90
2018-08-12T00:36:09.427Z,7.53
2018-08-12T00:38:45.013Z,6.13
2018-08-12T00:41:14.214Z,8.17
2018-08-12T00:43:43.356Z,4.87
2018-08-12T00:46:12.473Z,6.10
2018-08-12T00:48:41.587Z,4.53
2018-08-12T00:51:10.747Z,4.80
2018-08-12T00:53:39.882Z,5.67
2018-08-12T00:56:08.966Z,4.00
2018-08-12T00:58:38.082Z,3.87
2018-08-12T01:01:07.323Z,6.77
2018-08-12T01:03:36.612Z,4.47
2018-08-12T01:06:05.862Z,6.20
2018-08-12T01:08:34.969Z,4.83
2018-08-12T01:11:04.079Z,5.63
2018-08-12T01:13:33.168Z,5.00
2018-08-12T01:16:02.275Z,5.60
2018-08-12T01:18:31.503Z,4.60
2018-08-12T01:21:00.624Z,5.50
2018-08-12T01:23:29.764Z,5.03
2018-08-12T01:26:06.419Z,4.23
2018-08-12T01:28:35.709Z,5.20
2018-08-12T01:31:04.799Z,4.90
2018-08-12T01:33:33.921Z,6.40
2018-08-12T01:36:03.030Z,6.30
2018-08-12T01:38:32.165Z,8.13
2018-08-12T01:41:01.161Z,5.20
2018-08-12T01:43:30.284Z,4.60
2018-08-12T01:45:59.253Z,4.70
2018-08-12T01:48:28.327Z,5.60
2018-08-12T01:50:57.362Z,6.30
2018-08-12T01:53:26.558Z,5.13
2018-08-12T01:55:55.592Z,5.93
2018-08-12T01:58:24.679Z,5.77
2018-08-12T02:00:54.235Z,5.70
2018-08-12T02:03:23.403Z,4.47
2018-08-12T02:05:52.646Z,6.70
2018-08-12T02:08:21.599Z,5.33
2018-08-12T02:10:50.653Z,6.73
2018-08-12T02:13:19.740Z,8.57
2018-08-12T02:15:48.924Z,6.23
2018-08-12T02:18:17.987Z,5.10
2018-08-12T02:20:46.983Z,4.20
2018-08-12T02:23:16.217Z,5.30
2018-08-12T02:25:45.325Z,4.50
2018-08-12T02:28:14.444Z,3.93
2018-08-12T02:30:43.600Z,4.80
2018-08-12T02:33:12.670Z,5.77
2018-08-12T02:35:41.725Z,5.97
2018-08-12T02:38:10.695Z,4.03
2018-08-12T02:40:39.812Z,4.70
2018-08-12T02:43:08.856Z,6.43
2018-08-12T02:45:37.924Z,5.67
2018-08-12T02:48:06.974Z,4.10
2018-08-12T02:50:36.188Z,4.57
2018-08-12T02:53:05.521Z,4.57
2018-08-12T02:55:34.633Z,4.30
2018-08-12T02:58:03.828Z,9.13
2018-08-12T03:00:33.016Z,4.77
2018-08-12T03:03:02.068Z,5.97
2018-08-12T03:05:31.129Z,7.20
2018-08-12T03:08:00.135Z,5.90
2018-08-12T03:10:29.252Z,6.60
2018-08-12T03:12:58.223Z,5.23
2018-08-12T03:15:27.316Z,7.77
2018-08-12T03:17:56.333Z,5.33
2018-08-12T03:20:25.500Z,7.10
2018-08-12T03:22:54.565Z,6.53
2018-08-12T03:25:23.751Z,4.37
2018-08-12T03:27:52.787Z,4.50
2018-08-12T03:30:22.068Z,5.90
2018-08-12T03:32:51.312Z,5.97
2018-08-12T03:35:20.476Z,6.33
2018-08-12T03:37:49.568Z,6.27
2018-08-12T03:40:18.737Z,9.80
2018-08-12T03:42:47.717Z,4.93
2018-08-12T03:45:16.800Z,7.47
2018-08-12T03:47:45.887Z,8.20
2018-08-12T03:50:14.937Z,5.67
2018-08-12T03:52:44.084Z,6.30
2018-08-12T03:55:13.199Z,8.90
2018-08-12T03:57:42.220Z,7.00
2018-08-12T04:00:15.335Z,5.63
2018-08-12T04:02:45.113Z,4.47
2018-08-12T04:05:14.338Z,11.07
2018-08-12T04:07:44.263Z,7.20
2018-08-12T04:10:13.433Z,8.93
2018-08-12T04:12:42.555Z,6.77
2018-08-12T04:15:12.559Z,6.70
2018-08-12T04:17:42.028Z,6.20
2018-08-12T04:20:12.040Z,7.27
2018-08-12T04:22:41.286Z,15.47
2018-08-12T04:25:10.478Z,5.53
2018-08-12T04:27:39.545Z,5.70
2018-08-12T04:30:09.959Z,7.33
2018-08-12T04:32:38.981Z,7.70
2018-08-12T04:35:08.527Z,6.73
2018-08-12T04:37:37.563Z,5.80
2018-08-12T04:40:07.694Z,5.77
2018-08-12T04:42:36.796Z,4.77
2018-08-12T04:45:06.263Z,5.20
2018-08-12T04:47:35.350Z,5.87
2018-08-12T04:50:04.715Z,6.83
2018-08-12T04:52:33.737Z,8.30
2018-08-12T04:55:02.800Z,10.37
2018-08-12T04:57:31.980Z,5.67
2018-08-12T05:00:01.090Z,6.77
2018-08-12T05:02:30.155Z,5.07
2018-08-12T05:04:59.403Z,4.57
2018-08-12T05:07:28.476Z,4.30
2018-08-12T05:09:57.555Z,7.50
2018-08-12T05:12:26.555Z,6.00
2018-08-12T05:14:55.586Z,5.13
2018-08-12T05:17:24.823Z,7.27
2018-08-12T05:20:00.079Z,9.33
2018-08-12T05:22:29.288Z,11.43
2018-08-12T05:24:58.245Z,8.40
2018-08-12T05:27:27.241Z,7.03
2018-08-12T05:29:56.263Z,10.87
2018-08-12T05:32:25.381Z,10.43
2018-08-12T05:34:54.614Z,6.43
2018-08-12T05:37:23.678Z,8.27
2018-08-12T05:39:53.154Z,9.47
2018-08-12T05:42:22.155Z,9.63
2018-08-12T05:44:51.299Z,8.13
2018-08-12T05:47:20.383Z,9.27
2018-08-12T05:49:49.405Z,6.33
2018-08-12T05:52:18.355Z,5.03
2018-08-12T05:54:47.448Z,11.57
2018-08-12T05:57:16.525Z,7.40
2018-08-12T05:59:45.619Z,5.80
2018-08-12T06:02:14.771Z,9.40
2018-08-12T06:04:43.904Z,9.60
2018-08-12T06:07:19.630Z,5.97
2018-08-12T06:09:48.929Z,5.33
2018-08-12T06:12:17.855Z,7.63
2018-08-12T06:14:47.081Z,11.90
2018-08-12T06:17:16.184Z,6.23
2018-08-12T06:19:45.188Z,5.17
2018-08-12T06:22:14.296Z,12.20
2018-08-12T06:24:43.332Z,10.13
2018-08-12T06:27:12.430Z,6.63
2018-08-12T06:29:41.525Z,8.03
2018-08-12T06:32:10.747Z,4.97
2018-08-12T06:34:39.812Z,6.30
2018-08-12T06:37:08.807Z,6.00
2018-08-12T06:39:37.916Z,5.93
2018-08-12T06:42:07.224Z,6.90
2018-08-12T06:44:36.271Z,7.13
2018-08-12T06:47:05.506Z,5.53
2018-08-12T06:49:35.699Z,5.00
2018-08-12T06:52:04.954Z,7.03
2018-08-12T06:54:35.225Z,7.13
2018-08-12T06:57:04.414Z,6.60
2018-08-12T06:59:33.599Z,6.43
2018-08-12T07:02:02.813Z,7.60
2018-08-12T07:04:31.803Z,8.20
2018-08-12T07:07:00.972Z,11.33
2018-08-12T07:09:30.078Z,9.10
2018-08-12T07:11:59.051Z,7.97
2018-08-12T07:14:28.332Z,8.80
2018-08-12T07:16:57.538Z,6.93
2018-08-12T07:19:26.591Z,9.13
2018-08-12T07:21:55.574Z,9.70
2018-08-12T07:24:24.679Z,8.17
2018-08-12T07:26:53.727Z,8.63
2018-08-12T07:29:22.887Z,5.40
2018-08-12T07:31:52.064Z,7.03
2018-08-12T07:34:21.245Z,5.57
2018-08-12T07:36:50.296Z,9.17
2018-08-12T07:39:19.437Z,9.47
2018-08-12T07:41:48.648Z,7.40
2018-08-12T07:44:17.796Z,15.30
2018-08-12T07:46:46.980Z,10.47
2018-08-12T07:49:16.215Z,7.70
2018-08-12T07:51:45.315Z,8.57
2018-08-12T07:54:14.489Z,6.93
2018-08-12T07:56:43.559Z,20.97
2018-08-12T07:59:12.672Z,9.93
2018-08-12T08:01:41.703Z,8.97
2018-08-12T08:04:10.775Z,5.83
2018-08-12T08:06:39.792Z,6.53
2018-08-12T08:09:11.001Z,6.23
2018-08-12T08:11:40.387Z,6.33
2018-08-12T08:14:09.551Z,7.87
2018-08-12T08:16:38.655Z,9.30
2018-08-12T08:19:07.772Z,7.57
2018-08-12T08:21:36.883Z,5.87
2018-08-12T08:24:06.961Z,6.17
2018-08-12T08:26:36.207Z,9.07
2018-08-12T08:29:05.707Z,6.50
2018-08-12T08:31:35.045Z,8.00
2018-08-12T08:34:03.951Z,5.07
2018-08-12T08:36:32.979Z,10.30
2018-08-12T08:39:02.127Z,8.73
2018-08-12T08:41:31.198Z,8.57
2018-08-12T08:44:00.372Z,12.33
2018-08-12T08:46:29.411Z,12.60
2018-08-12T08:48:58.443Z,10.70
2018-08-12T08:51:27.487Z,13.10
2018-08-12T08:53:56.471Z,6.70
2018-08-12T08:56:25.655Z,6.00
2018-08-12T08:58:54.828Z,8.60
2018-08-12T09:01:24.136Z,5.90
2018-08-12T09:03:53.367Z,12.37
2018-08-12T09:06:22.388Z,6.10
2018-08-12T09:08:51.642Z,5.90
2018-08-12T09:11:20.608Z,4.93
2018-08-12T09:13:49.686Z,5.73
2018-08-12T09:16:18.755Z,6.40
2018-08-12T09:18:47.891Z,6.63
2018-08-12T09:21:16.919Z,3.73
2018-08-12T09:23:45.910Z,5.47
2018-08-12T09:26:15.002Z,4.00
2018-08-12T09:28:44.117Z,5.00
2018-08-12T09:31:13.236Z,4.73
2018-08-12T09:33:42.286Z,5.43
2018-08-12T09:36:11.385Z,4.13
2018-08-12T09:38:40.445Z,9.63
2018-08-12T09:41:09.484Z,7.10
2018-08-12T09:43:38.628Z,4.47
2018-08-12T09:46:08.013Z,3.60
2018-08-12T09:48:37.067Z,4.00
2018-08-12T09:51:06.119Z,4.57
2018-08-12T09:53:35.193Z,4.13
2018-08-12T09:56:04.274Z,4.97
2018-08-12T09:58:33.414Z,4.50
2018-08-12T10:01:02.469Z,4.03
2018-08-12T10:03:31.649Z,4.77
2018-08-12T10:06:00.699Z,8.57
2018-08-12T10:08:29.822Z,5.60
2018-08-12T10:10:58.971Z,7.50
2018-08-12T10:13:27.983Z,3.63
2018-08-12T10:15:57.127Z,3.37
2018-08-12T10:18:26.435Z,7.33
2018-08-12T10:20:55.550Z,6.73
2018-08-12T10:23:24.647Z,8.10
2018-08-12T10:25:53.691Z,7.07
2018-08-12T10:28:22.763Z,5.87
2018-08-12T10:30:51.760Z,9.43
2018-08-12T10:33:20.793Z,10.57
2018-08-12T10:35:49.757Z,9.73
2018-08-12T10:38:19.011Z,6.67
2018-08-12T10:40:48.071Z,8.03
2018-08-12T10:43:17.089Z,4.63
2018-08-12T10:45:46.150Z,3.47
2018-08-12T10:48:15.287Z,7.30
2018-08-12T10:50:44.432Z,4.93
2018-08-12T10:53:13.609Z,3.47
2018-08-12T10:55:42.830Z,6.37
2018-08-12T10:58:12.116Z,5.37
2018-08-12T11:00:41.211Z,4.03
2018-08-12T11:03:10.360Z,4.87
2018-08-12T11:05:39.515Z,4.63
2018-08-12T11:08:08.771Z,8.77
2018-08-12T11:10:37.927Z,4.50
2018-08-12T11:13:07.121Z,6.53
2018-08-12T11:15:36.088Z,7.47
2018-08-12T11:18:05.137Z,3.77
2018-08-12T11:20:34.267Z,3.60
2018-08-12T11:23:03.345Z,3.37
2018-08-12T11:25:32.403Z,4.87
2018-08-12T11:28:01.536Z,4.00
2018-08-12T11:30:30.672Z,6.20
2018-08-12T11:32:59.712Z,3.70
2018-08-12T11:35:28.679Z,2.97
2018-08-12T11:37:57.844Z,8.23
2018-08-12T11:40:26.916Z,5.20
2018-08-12T11:42:56.181Z,5.10
2018-08-12T11:45:25.357Z,3.40
2018-08-12T11:47:54.652Z,5.70
2018-08-12T11:50:23.727Z,7.57
2018-08-12T11:52:52.805Z,5.07
2018-08-12T11:55:21.879Z,4.00
2018-08-12T11:57:51.015Z,4.63
2018-08-12T12:00:21.544Z,3.00
2018-08-12T12:02:52.644Z,4.37
2018-08-12T12:05:21.815Z,8.00
2018-08-12T12:07:50.898Z,4.87
2018-08-12T12:10:21.543Z,7.67
2018-08-12T12:12:51.383Z,5.60
2018-08-12T12:15:20.586Z,6.67
2018-08-12T12:17:49.889Z,6.30
2018-08-12T12:20:19.853Z,5.03
2018-08-12T12:22:49.241Z,6.83
2018-08-12T12:25:20.575Z,4.37
2018-08-12T12:27:49.635Z,4.80
2018-08-12T12:30:21.617Z,4.50
2018-08-12T12:32:51.924Z,3.57
2018-08-12T12:35:21.059Z,4.33
2018-08-12T12:37:50.392Z,5.90
2018-08-12T12:40:20.056Z,6.33
2018-08-12T12:42:49.284Z,6.57
2018-08-12T12:45:18.466Z,3.87
2018-08-12T12:47:47.419Z,5.20
2018-08-12T12:50:21.422Z,6.83
2018-08-12T12:52:51.503Z,5.97
2018-08-12T12:55:21.763Z,3.97
2018-08-12T12:57:50.864Z,5.60
2018-08-12T13:00:21.140Z,4.57
2018-08-12T13:02:50.463Z,5.27
2018-08-12T13:05:20.619Z,4.80
2018-08-12T13:07:50.337Z,7.43
2018-08-12T13:10:19.973Z,5.90
2018-08-12T13:12:49.131Z,4.87
2018-08-12T13:15:18.496Z,5.10
2018-08-12T13:17:47.648Z,3.17
2018-08-12T13:20:18.412Z,3.50
2018-08-12T13:22:48.507Z,3.63
2018-08-12T13:25:19.135Z,4.87
2018-08-12T13:27:48.383Z,2.90
2018-08-12T13:30:21.299Z,3.27
2018-08-12T13:32:50.852Z,4.23
2018-08-12T13:35:20.017Z,4.30
2018-08-12T13:37:49.172Z,4.67
2018-08-12T13:40:18.588Z,4.67
2018-08-12T13:42:47.953Z,4.40
2018-08-12T13:45:17.118Z,3.87
2018-08-12T13:47:47.083Z,5.03
2018-08-12T13:50:19.830Z,3.43
2018-08-12T13:52:49.529Z,4.77
2018-08-12T13:55:19.275Z,8.57
2018-08-12T13:57:49.150Z,3.73
2018-08-12T14:00:20.005Z,3.43
2018-08-12T14:02:49.069Z,3.53
2018-08-12T14:05:19.113Z,5.53
2018-08-12T14:07:48.664Z,5.00
2018-08-12T14:10:17.682Z,7.67
2018-08-12T14:12:46.778Z,6.70
2018-08-12T14:15:18.919Z,5.53
2018-08-12T14:17:48.855Z,4.60
2018-08-12T14:20:20.104Z,8.70
2018-08-12T14:22:49.286Z,6.90
2018-08-12T14:25:18.250Z,5.67
2018-08-12T14:27:47.575Z,4.03
2018-08-12T14:30:18.288Z,3.60
2018-08-12T14:32:48.285Z,3.60
2018-08-12T14:35:17.556Z,4.97
2018-08-12T14:37:46.683Z,2.83
2018-08-12T14:40:18.920Z,3.13
2018-08-12T14:42:48.162Z,5.40
2018-08-12T14:45:17.529Z,2.53
2018-08-12T14:47:47.008Z,4.37
2018-08-12T14:50:19.146Z,3.30
2018-08-12T14:52:48.352Z,2.57
2018-08-12T14:55:18.960Z,2.60
2018-08-12T14:57:48.063Z,2.93
2018-08-12T15:00:20.148Z,2.67
2018-08-12T15:02:51.293Z,3.20
2018-08-12T15:05:20.917Z,4.50
2018-08-12T15:07:50.310Z,5.30
2018-08-12T15:10:19.793Z,4.50
2018-08-12T15:12:49.126Z,3.87
2018-08-12T15:15:18.313Z,4.80
2018-08-12T15:17:47.733Z,3.40
2018-08-12T15:20:17.620Z,3.17
2018-08-12T15:22:47.021Z,7.40
2018-08-12T15:25:19.220Z,2.97
2018-08-12T15:27:48.457Z,4.37
2018-08-12T15:30:17.643Z,3.30
2018-08-12T15:32:46.715Z,3.93
2018-08-12T15:37:53.443Z,5.50
2018-08-12T15:40:22.579Z,3.40
2018-08-12T15:42:51.778Z,4.37
2018-08-12T15:45:21.089Z,7.07
2018-08-12T15:47:50.299Z,3.70
2018-08-12T15:50:19.414Z,8.87
2018-08-12T15:52:48.502Z,3.40
2018-08-12T15:55:17.672Z,4.83
2018-08-12T15:57:46.836Z,3.57
2018-08-12T16:00:18.123Z,4.67
2018-08-12T16:02:47.445Z,4.43
2018-08-12T16:05:16.534Z,4.70
2018-08-12T16:07:46.605Z,7.60
2018-08-12T16:10:25.292Z,4.17
2018-08-12T16:12:55.090Z,5.47
2018-08-12T16:15:31.302Z,4.17
2018-08-12T16:18:00.957Z,3.87
2018-08-12T16:20:29.906Z,3.87
2018-08-12T16:22:59.027Z,9.00
2018-08-12T16:25:28.056Z,3.07
2018-08-12T16:27:57.075Z,4.90
2018-08-12T16:30:26.383Z,3.53
2018-08-12T16:32:55.346Z,4.47
2018-08-12T16:35:26.459Z,3.33
2018-08-12T16:37:56.238Z,6.80
2018-08-12T16:40:25.268Z,7.80
2018-08-12T16:42:54.350Z,5.27
2018-08-12T16:45:23.536Z,3.87
2018-08-12T16:47:52.651Z,3.37
2018-08-12T16:50:21.689Z,7.10
2018-08-12T16:52:50.739Z,5.17
2018-08-12T16:55:20.127Z,5.13
2018-08-12T17:03:57.082Z,5.93
2018-08-12T17:06:26.395Z,5.67
2018-08-12T17:08:55.574Z,3.60
2018-08-12T17:11:24.560Z,2.97
2018-08-12T17:13:53.663Z,6.60
2018-08-12T17:16:22.869Z,4.80
2018-08-12T17:18:52.031Z,5.47
2018-08-12T17:21:21.214Z,5.27
2018-08-12T17:23:50.371Z,4.90
2018-08-12T17:26:20.216Z,3.23
2018-08-12T17:28:49.199Z,6.63
2018-08-12T17:31:19.547Z,6.58
2018-08-12T17:33:48.588Z,23.47
2018-08-12T17:36:17.777Z,3.37
2018-08-12T17:38:46.948Z,6.57
2018-08-12T17:41:16.064Z,5.13
2018-08-12T17:43:45.081Z,6.90
2018-08-12T17:46:14.125Z,4.80
2018-08-12T17:48:43.213Z,5.50
2018-08-12T17:51:12.401Z,5.77
2018-08-12T17:53:41.559Z,4.43
2018-08-12T17:56:11.188Z,6.70
2018-08-12T17:58:40.512Z,8.17
2018-08-12T18:01:09.517Z,6.10
2018-08-12T18:03:38.575Z,6.50
2018-08-12T18:06:07.699Z,5.20
2018-08-12T18:08:36.764Z,3.83
2018-08-12T18:11:05.855Z,6.37
2018-08-12T18:13:35.008Z,6.53
2018-08-12T18:16:04.045Z,4.10
2018-08-12T18:18:33.041Z,5.13
2018-08-12T18:21:02.060Z,5.73
2018-08-12T18:23:31.176Z,4.57
2018-08-12T18:26:00.303Z,7.33
2018-08-12T18:28:29.369Z,6.20
2018-08-12T18:30:58.392Z,7.63
2018-08-12T18:33:27.382Z,9.50
2018-08-12T18:35:56.375Z,6.73
2018-08-12T18:38:25.392Z,8.63
2018-08-12T18:40:54.486Z,5.13
2018-08-12T18:43:23.585Z,5.60
2018-08-12T18:45:52.663Z,6.13
2018-08-12T18:48:21.812Z,8.27
2018-08-12T18:50:50.776Z,6.93
2018-08-12T18:53:19.829Z,6.90
2018-08-12T18:55:48.859Z,6.10
2018-08-12T18:58:17.843Z,7.47
2018-08-12T19:00:46.951Z,7.77
2018-08-12T19:03:16.072Z,20.80
2018-08-12T19:05:45.135Z,59.00
2018-08-12T19:08:14.044Z,19.03
2018-08-12T19:10:42.994Z,22.03
2018-08-12T19:13:11.951Z,22.63
2018-08-12T19:15:40.941Z,22.70
2018-08-12T19:18:10.020Z,26.20
2018-08-12T19:20:39.014Z,81.30
2018-08-12T19:23:08.098Z,98.50
2018-08-12T19:25:37.151Z,56.53
2018-08-12T19:28:06.336Z,27.00
2018-08-12T19:30:35.303Z,28.63
2018-08-12T19:33:04.402Z,21.27
2018-08-12T19:35:33.431Z,18.80
2018-08-12T19:38:02.614Z,23.53
2018-08-12T19:40:31.637Z,12.63
2018-08-12T19:43:00.747Z,8.37
2018-08-12T19:45:30.068Z,7.80
2018-08-12T19:47:59.056Z,9.40
2018-08-12T19:50:28.156Z,7.30
2018-08-12T19:52:57.310Z,9.20
2018-08-12T19:55:26.319Z,13.30
2018-08-12T19:57:55.360Z,9.13
2018-08-12T20:00:24.322Z,10.10
2018-08-12T20:02:53.383Z,10.53
2018-08-12T20:05:22.361Z,8.20
2018-08-12T20:07:51.391Z,8.53
2018-08-12T20:10:20.358Z,9.00
2018-08-12T20:12:49.546Z,8.53
2018-08-12T20:15:18.650Z,10.70
2018-08-12T20:17:47.554Z,8.50
2018-08-12T20:20:16.600Z,6.57
2018-08-12T20:22:48.429Z,7.00
2018-08-12T20:25:17.467Z,8.57
2018-08-12T20:27:46.500Z,6.60
2018-08-12T20:30:15.495Z,8.03
2018-08-12T20:32:44.474Z,6.27
2018-08-12T20:35:13.457Z,8.03
2018-08-12T20:37:42.442Z,11.07
2018-08-12T20:40:11.545Z,8.27
2018-08-12T20:42:40.586Z,7.87
2018-08-12T20:45:09.602Z,9.63
2018-08-12T20:47:38.642Z,6.47
2018-08-12T20:50:08.252Z,8.00
2018-08-12T20:52:37.752Z,8.27
2018-08-12T20:55:06.856Z,6.00
2018-08-12T20:57:36.235Z,5.37
2018-08-12T21:00:06.792Z,6.03
2018-08-12T21:02:36.009Z,6.77
2018-08-12T21:05:05.509Z,7.07
2018-08-12T21:07:34.620Z,6.97
2018-08-12T21:10:04.440Z,6.33
2018-08-12T21:12:33.552Z,9.40
2018-08-12T21:15:02.590Z,9.13
2018-08-12T21:17:31.526Z,6.37
2018-08-12T21:20:00.457Z,11.60
2018-08-12T21:22:29.569Z,7.73
2018-08-12T21:24:58.712Z,10.03
2018-08-12T21:27:27.682Z,7.00
2018-08-12T21:29:56.638Z,7.03
2018-08-12T21:32:25.635Z,6.87
2018-08-12T21:34:54.603Z,5.90
2018-08-12T21:37:23.594Z,7.00
2018-08-12T21:39:52.573Z,7.33
2018-08-12T21:42:21.734Z,6.30
2018-08-12T21:44:50.935Z,5.03
2018-08-12T21:47:20.062Z,7.10
2018-08-12T21:49:49.060Z,6.83
2018-08-12T21:52:18.000Z,6.13
2018-08-12T21:54:47.056Z,5.43
2018-08-12T21:57:16.057Z,4.93
2018-08-12T21:59:45.095Z,4.57
2018-08-12T22:02:14.099Z,6.73
2018-08-12T22:04:43.157Z,5.73
2018-08-12T22:07:12.258Z,6.20
2018-08-12T22:09:41.172Z,6.33
2018-08-12T22:12:10.223Z,6.87
2018-08-12T22:14:39.216Z,4.67
2018-08-12T22:17:08.192Z,4.97
2018-08-12T22:19:37.194Z,5.97
2018-08-12T22:22:06.499Z,4.33
2018-08-12T22:24:35.519Z,6.87
2018-08-12T22:27:04.623Z,4.33
2018-08-12T22:29:33.609Z,4.67
2018-08-12T22:32:02.637Z,5.00
2018-08-12T22:34:31.635Z,6.93
2018-08-12T22:37:00.656Z,6.37
2018-08-12T22:39:29.723Z,6.30
2018-08-12T22:41:58.866Z,5.83
2018-08-12T22:44:27.899Z,6.97
2018-08-12T22:46:57.044Z,4.20
2018-08-12T22:49:26.041Z,7.97
2018-08-12T22:51:55.200Z,7.73
2018-08-12T22:54:24.236Z,6.03
2018-08-12T22:56:53.525Z,4.13
2018-08-12T22:59:22.616Z,6.10
2018-08-12T23:01:51.734Z,5.50
2018-08-12T23:04:20.833Z,6.23
2018-08-12T23:06:49.961Z,4.47
2018-08-12T23:09:18.975Z,4.20
2018-08-12T23:11:48.043Z,5.57
2018-08-12T23:14:17.031Z,4.27
2018-08-12T23:16:59.524Z,4.80
2018-08-12T23:19:28.953Z,6.53
2018-08-12T23:21:58.254Z,4.70
2018-08-12T23:24:27.283Z,5.93
2018-08-12T23:26:56.355Z,5.47
2018-08-12T23:29:25.408Z,5.90
2018-08-12T23:31:54.395Z,3.90
2018-08-12T23:34:23.396Z,4.77
2018-08-12T23:36:52.553Z,4.20
2018-08-12T23:39:21.701Z,3.87
2018-08-12T23:41:50.705Z,5.47
2018-08-12T23:44:19.715Z,4.43
2018-08-12T23:46:48.810Z,6.27
2018-08-12T23:49:17.905Z,4.00
2018-08-12T23:51:46.896Z,6.00
2018-08-12T23:54:16.010Z,4.33
2018-08-12T23:56:45.087Z,4.87
2018-08-12T23:59:14.133Z,5.13
